Terminal Aerodrome Forecast
Issued by NWS New Orleans/Baton Rouge, LA

Home | Current Version | Previous Version | Text Only | Print | Product List | Glossary On
Versions: 1 2 3 4 5 6 7 8 9 10 11 12 13
000
FTUS44 KLIX 011700
TAFBTR
TAF
KBTR 011720Z 0118/0218 14009KT P6SM VCTS BKN030CB
     FM012100 15010KT P6SM BKN050
     FM020200 15006KT P6SM BKN025
     FM021500 15005KT P6SM VCTS BKN040CB=

USA.gov is the U.S. government's official web portal to all federal, state and local government web resources and services.